sensor_id;sensor_type;location;lat;lon;timestamp;pressure;altitude;pressure_sealevel;temperature;humidity
58757;BME280;44527;47.460;19.016;2023-06-14T00:01:05;100011.69;;;14.01;84.15
58757;BME280;44527;47.460;19.016;2023-06-14T00:04:08;100011.97;;;14.08;84.70
58757;BME280;44527;47.460;19.016;2023-06-14T00:07:11;100020.81;;;14.18;83.75
58757;BME280;44527;47.460;19.016;2023-06-14T00:10:16;100015.78;;;14.15;83.25
58757;BME280;44527;47.460;19.016;2023-06-14T00:13:19;100018.47;;;14.24;82.46
58757;BME280;44527;47.460;19.016;2023-06-14T00:16:22;100019.47;;;14.33;82.82
58757;BME280;44527;47.460;19.016;2023-06-14T00:19:25;100021.62;;;14.18;83.77
58757;BME280;44527;47.460;19.016;2023-06-14T00:22:28;100026.19;;;14.16;83.32
58757;BME280;44527;47.460;19.016;2023-06-14T00:25:33;100021.19;;;14.13;83.88
58757;BME280;44527;47.460;19.016;2023-06-14T00:28:36;100028.72;;;14.18;84.05
58757;BME280;44527;47.460;19.016;2023-06-14T00:31:40;100035.59;;;14.30;83.53
58757;BME280;44527;47.460;19.016;2023-06-14T00:34:43;100030.78;;;14.14;84.99
58757;BME280;44527;47.460;19.016;2023-06-14T00:37:45;100031.62;;;14.15;84.80
58757;BME280;44527;47.460;19.016;2023-06-14T00:40:48;100035.47;;;14.11;85.41
58757;BME280;44527;47.460;19.016;2023-06-14T00:43:50;100036.06;;;14.14;85.69
58757;BME280;44527;47.460;19.016;2023-06-14T00:46:53;100033.28;;;14.16;86.36
58757;BME280;44527;47.460;19.016;2023-06-14T00:49:58;100032.84;;;14.11;86.35
58757;BME280;44527;47.460;19.016;2023-06-14T00:53:03;100043.03;;;13.94;87.71
58757;BME280;44527;47.460;19.016;2023-06-14T00:56:05;100036.44;;;14.10;87.45
58757;BME280;44527;47.460;19.016;2023-06-14T00:59:08;100032.97;;;14.09;87.16
58757;BME280;44527;47.460;19.016;2023-06-14T01:02:11;100037.13;;;14.02;88.12
58757;BME280;44527;47.460;19.016;2023-06-14T01:05:14;100042.25;;;14.03;87.69
58757;BME280;44527;47.460;19.016;2023-06-14T01:08:25;100036.19;;;14.13;88.01
58757;BME280;44527;47.460;19.016;2023-06-14T01:11:34;100031.44;;;14.07;87.89
58757;BME280;44527;47.460;19.016;2023-06-14T01:14:41;100032.78;;;14.01;88.46
58757;BME280;44527;47.460;19.016;2023-06-14T01:17:44;100043.66;;;14.08;89.09
58757;BME280;44527;47.460;19.016;2023-06-14T01:20:48;100036.94;;;13.94;90.56
58757;BME280;44527;47.460;19.016;2023-06-14T01:23:52;100034.59;;;14.00;91.10
58757;BME280;44527;47.460;19.016;2023-06-14T01:26:55;100023.78;;;14.03;91.32
58757;BME280;44527;47.460;19.016;2023-06-14T01:30:02;100024.34;;;14.07;91.16
58757;BME280;44527;47.460;19.016;2023-06-14T01:33:05;100032.78;;;14.01;91.36
58757;BME280;44527;47.460;19.016;2023-06-14T01:36:09;100023.53;;;14.07;91.00
58757;BME280;44527;47.460;19.016;2023-06-14T01:39:14;100032.75;;;13.91;92.17
58757;BME280;44527;47.460;19.016;2023-06-14T01:42:17;100035.44;;;13.80;93.61
58757;BME280;44527;47.460;19.016;2023-06-14T01:45:21;100041.22;;;13.74;93.83
58757;BME280;44527;47.460;19.016;2023-06-14T01:48:25;100037.31;;;13.89;93.60
58757;BME280;44527;47.460;19.016;2023-06-14T01:51:27;100034.03;;;13.97;93.00
58757;BME280;44527;47.460;19.016;2023-06-14T01:54:30;100044.69;;;13.95;92.63
58757;BME280;44527;47.460;19.016;2023-06-14T01:57:33;100035.59;;;13.78;93.57
58757;BME280;44527;47.460;19.016;2023-06-14T02:00:36;100038.59;;;13.74;94.40
58757;BME280;44527;47.460;19.016;2023-06-14T02:03:38;100055.44;;;13.62;95.84
58757;BME280;44527;47.460;19.016;2023-06-14T02:06:41;100048.50;;;13.61;95.82
58757;BME280;44527;47.460;19.016;2023-06-14T02:09:43;100053.00;;;13.70;95.46
58757;BME280;44527;47.460;19.016;2023-06-14T02:12:46;100058.00;;;13.52;97.44
58757;BME280;44527;47.460;19.016;2023-06-14T02:15:48;100051.28;;;13.59;97.22
58757;BME280;44527;47.460;19.016;2023-06-14T02:18:56;100059.31;;;13.57;98.36
58757;BME280;44527;47.460;19.016;2023-06-14T02:21:59;100057.41;;;13.60;98.35
58757;BME280;44527;47.460;19.016;2023-06-14T02:25:02;100052.56;;;13.65;98.30
58757;BME280;44527;47.460;19.016;2023-06-14T02:28:05;100063.56;;;13.70;98.34
58757;BME280;44527;47.460;19.016;2023-06-14T02:31:07;100054.88;;;13.79;97.72
58757;BME280;44527;47.460;19.016;2023-06-14T02:34:10;100051.66;;;13.75;97.62
58757;BME280;44527;47.460;19.016;2023-06-14T02:37:12;100053.47;;;13.75;98.42
58757;BME280;44527;47.460;19.016;2023-06-14T02:40:15;100049.75;;;13.77;98.46
58757;BME280;44527;47.460;19.016;2023-06-14T02:43:18;100057.53;;;13.79;98.83
58757;BME280;44527;47.460;19.016;2023-06-14T02:46:21;100050.59;;;13.78;98.87
58757;BME280;44527;47.460;19.016;2023-06-14T02:49:24;100049.53;;;13.90;98.45
58757;BME280;44527;47.460;19.016;2023-06-14T02:52:26;100046.75;;;13.92;97.96
58757;BME280;44527;47.460;19.016;2023-06-14T02:55:29;100054.31;;;13.75;99.55
58757;BME280;44527;47.460;19.016;2023-06-14T02:58:31;100058.81;;;13.85;98.45
58757;BME280;44527;47.460;19.016;2023-06-14T03:01:35;100055.03;;;13.77;99.65
58757;BME280;44527;47.460;19.016;2023-06-14T03:04:38;100059.53;;;13.66;100.00
58757;BME280;44527;47.460;19.016;2023-06-14T03:07:42;100055.91;;;13.88;98.54
58757;BME280;44527;47.460;19.016;2023-06-14T03:10:48;100044.00;;;13.72;100.00
58757;BME280;44527;47.460;19.016;2023-06-14T03:13:51;100047.16;;;13.87;98.23
58757;BME280;44527;47.460;19.016;2023-06-14T03:16:54;100052.31;;;13.89;97.78
58757;BME280;44527;47.460;19.016;2023-06-14T03:20:00;100044.53;;;13.87;97.28
58757;BME280;44527;47.460;19.016;2023-06-14T03:23:03;100051.22;;;13.91;96.85
58757;BME280;44527;47.460;19.016;2023-06-14T03:26:07;100054.25;;;13.87;96.90
58757;BME280;44527;47.460;19.016;2023-06-14T03:29:10;100051.53;;;13.98;96.67
58757;BME280;44527;47.460;19.016;2023-06-14T03:32:13;100049.03;;;13.96;96.31
58757;BME280;44527;47.460;19.016;2023-06-14T03:35:16;100055.91;;;14.09;95.82
58757;BME280;44527;47.460;19.016;2023-06-14T03:38:20;100046.38;;;14.17;94.84
58757;BME280;44527;47.460;19.016;2023-06-14T03:41:24;100052.47;;;14.18;95.90
58757;BME280;44527;47.460;19.016;2023-06-14T03:44:27;100059.06;;;14.33;95.37
58757;BME280;44527;47.460;19.016;2023-06-14T03:47:30;100055.62;;;14.42;94.40
58757;BME280;44527;47.460;19.016;2023-06-14T03:50:33;100065.91;;;14.66;92.40
58757;BME280;44527;47.460;19.016;2023-06-14T03:53:36;100060.63;;;14.66;92.90
58757;BME280;44527;47.460;19.016;2023-06-14T03:56:56;100061.47;;;14.77;92.27
58757;BME280;44527;47.460;19.016;2023-06-14T03:59:59;100056.66;;;14.91;90.43
58757;BME280;44527;47.460;19.016;2023-06-14T04:03:02;100064.84;;;14.88;89.31
58757;BME280;44527;47.460;19.016;2023-06-14T04:06:07;100064.97;;;14.97;89.98
58757;BME280;44527;47.460;19.016;2023-06-14T04:09:09;100062.66;;;15.13;88.29
58757;BME280;44527;47.460;19.016;2023-06-14T04:12:12;100073.94;;;15.25;86.92
58757;BME280;44527;47.460;19.016;2023-06-14T04:15:15;100078.09;;;15.27;87.51
58757;BME280;44527;47.460;19.016;2023-06-14T04:18:24;100078.13;;;15.47;85.58
58757;BME280;44527;47.460;19.016;2023-06-14T04:21:26;100081.34;;;15.31;86.06
58757;BME280;44527;47.460;19.016;2023-06-14T04:24:32;100085.91;;;15.48;84.68
58757;BME280;44527;47.460;19.016;2023-06-14T04:27:34;100083.84;;;15.61;84.22
58757;BME280;44527;47.460;19.016;2023-06-14T04:30:39;100086.06;;;15.66;83.62
58757;BME280;44527;47.460;19.016;2023-06-14T04:33:42;100086.91;;;15.86;83.07
58757;BME280;44527;47.460;19.016;2023-06-14T04:36:47;100092.97;;;16.16;81.43
58757;BME280;44527;47.460;19.016;2023-06-14T04:39:56;100089.16;;;17.56;74.10
58757;BME280;44527;47.460;19.016;2023-06-14T04:42:59;100092.78;;;19.20;66.48
58757;BME280;44527;47.460;19.016;2023-06-14T04:46:01;100092.25;;;21.95;55.92
58757;BME280;44527;47.460;19.016;2023-06-14T04:49:05;100103.22;;;24.04;48.28
58757;BME280;44527;47.460;19.016;2023-06-14T04:52:08;100097.16;;;25.07;46.40
58757;BME280;44527;47.460;19.016;2023-06-14T04:55:13;100096.06;;;26.42;42.39
58757;BME280;44527;47.460;19.016;2023-06-14T04:58:16;100107.81;;;28.08;37.88
58757;BME280;44527;47.460;19.016;2023-06-14T05:01:20;100108.97;;;27.93;38.08
58757;BME280;44527;47.460;19.016;2023-06-14T05:04:26;100114.47;;;28.85;35.53
58757;BME280;44527;47.460;19.016;2023-06-14T05:07:31;100119.78;;;28.92;35.33
58757;BME280;44527;47.460;19.016;2023-06-14T05:10:33;100118.00;;;29.04;35.04
58757;BME280;44527;47.460;19.016;2023-06-14T05:13:39;100118.25;;;29.75;34.05
58757;BME280;44527;47.460;19.016;2023-06-14T05:16:44;100122.06;;;30.21;33.22
58757;BME280;44527;47.460;19.016;2023-06-14T05:19:47;100116.28;;;29.94;32.96
58757;BME280;44527;47.460;19.016;2023-06-14T05:22:49;100117.78;;;30.84;31.71
58757;BME280;44527;47.460;19.016;2023-06-14T05:25:56;100118.94;;;31.45;31.29
58757;BME280;44527;47.460;19.016;2023-06-14T05:29:00;100112.09;;;31.71;30.02
58757;BME280;44527;47.460;19.016;2023-06-14T05:32:08;100118.75;;;31.06;31.13
58757;BME280;44527;47.460;19.016;2023-06-14T05:35:10;100128.34;;;31.88;29.79
58757;BME280;44527;47.460;19.016;2023-06-14T05:38:13;100124.28;;;30.48;31.57
58757;BME280;44527;47.460;19.016;2023-06-14T05:41:16;100122.47;;;29.11;33.66
58757;BME280;44527;47.460;19.016;2023-06-14T05:44:19;100116.94;;;27.82;36.25
58757;BME280;44527;47.460;19.016;2023-06-14T05:47:22;100122.75;;;26.57;39.20
58757;BME280;44527;47.460;19.016;2023-06-14T05:50:27;100117.56;;;28.27;36.12
58757;BME280;44527;47.460;19.016;2023-06-14T05:53:29;100127.81;;;28.99;35.61
58757;BME280;44527;47.460;19.016;2023-06-14T05:56:32;100131.09;;;30.74;32.46
58757;BME280;44527;47.460;19.016;2023-06-14T05:59:35;100131.59;;;30.35;32.21
58757;BME280;44527;47.460;19.016;2023-06-14T06:02:38;100135.00;;;31.64;30.10
58757;BME280;44527;47.460;19.016;2023-06-14T06:05:43;100135.13;;;31.40;30.36
58757;BME280;44527;47.460;19.016;2023-06-14T06:09:03;100128.47;;;31.93;29.98
58757;BME280;44527;47.460;19.016;2023-06-14T06:12:07;100125.06;;;32.20;29.08
58757;BME280;44527;47.460;19.016;2023-06-14T06:15:14;100123.38;;;32.53;28.43
58757;BME280;44527;47.460;19.016;2023-06-14T06:21:50;100125.47;;;32.67;27.90
58757;BME280;44527;47.460;19.016;2023-06-14T06:24:53;100124.72;;;32.33;29.20
58757;BME280;44527;47.460;19.016;2023-06-14T06:27:55;100140.78;;;31.84;29.58
58757;BME280;44527;47.460;19.016;2023-06-14T06:31:01;100134.38;;;32.63;28.41
58757;BME280;44527;47.460;19.016;2023-06-14T06:34:06;100135.91;;;33.47;27.51
58757;BME280;44527;47.460;19.016;2023-06-14T06:37:09;100129.50;;;33.09;28.22
58757;BME280;44527;47.460;19.016;2023-06-14T06:40:11;100132.81;;;33.38;27.39
58757;BME280;44527;47.460;19.016;2023-06-14T06:43:14;100135.56;;;33.70;26.94
58757;BME280;44527;47.460;19.016;2023-06-14T06:46:19;100130.59;;;30.88;30.59
58757;BME280;44527;47.460;19.016;2023-06-14T06:49:23;100132.16;;;30.14;31.95
58757;BME280;44527;47.460;19.016;2023-06-14T06:52:26;100122.88;;;28.59;34.80
58757;BME280;44527;47.460;19.016;2023-06-14T06:55:28;100121.09;;;25.70;40.43
58757;BME280;44527;47.460;19.016;2023-06-14T06:58:34;100125.13;;;25.19;43.20
58757;BME280;44527;47.460;19.016;2023-06-14T07:01:38;100125.47;;;25.03;43.60
58757;BME280;44527;47.460;19.016;2023-06-14T07:04:41;100127.44;;;24.81;43.13
58757;BME280;44527;47.460;19.016;2023-06-14T07:07:45;100125.84;;;24.99;43.38
58757;BME280;44527;47.460;19.016;2023-06-14T07:10:47;100119.13;;;24.41;45.32
58757;BME280;44527;47.460;19.016;2023-06-14T07:13:50;100128.22;;;24.12;46.49
58757;BME280;44527;47.460;19.016;2023-06-14T07:16:57;100125.94;;;24.37;44.84
58757;BME280;44527;47.460;19.016;2023-06-14T07:20:04;100126.25;;;24.90;44.54
58757;BME280;44527;47.460;19.016;2023-06-14T07:23:11;100128.09;;;25.51;42.04
58757;BME280;44527;47.460;19.016;2023-06-14T07:26:14;100122.69;;;25.31;42.97
58757;BME280;44527;47.460;19.016;2023-06-14T07:29:26;100125.63;;;24.94;43.99
58757;BME280;44527;47.460;19.016;2023-06-14T07:32:29;100117.44;;;24.33;45.81
58757;BME280;44527;47.460;19.016;2023-06-14T07:35:32;100121.87;;;23.91;47.17
58757;BME280;44527;47.460;19.016;2023-06-14T07:38:35;100128.09;;;23.34;47.94
58757;BME280;44527;47.460;19.016;2023-06-14T07:41:38;100130.12;;;23.32;47.26
58757;BME280;44527;47.460;19.016;2023-06-14T07:44:42;100135.44;;;23.10;48.69
58757;BME280;44527;47.460;19.016;2023-06-14T07:47:49;100137.12;;;22.22;50.98
58757;BME280;44527;47.460;19.016;2023-06-14T07:50:53;100138.69;;;22.09;52.24
58757;BME280;44527;47.460;19.016;2023-06-14T07:53:55;100144.53;;;22.50;50.72
58757;BME280;44527;47.460;19.016;2023-06-14T07:56:59;100145.59;;;22.03;53.33
58757;BME280;44527;47.460;19.016;2023-06-14T08:00:03;100141.06;;;22.03;54.07
58757;BME280;44527;47.460;19.016;2023-06-14T08:03:14;100143.66;;;22.64;51.55
58757;BME280;44527;47.460;19.016;2023-06-14T08:06:20;100146.09;;;22.59;50.56
58757;BME280;44527;47.460;19.016;2023-06-14T08:09:27;100146.59;;;23.14;48.42
58757;BME280;44527;47.460;19.016;2023-06-14T08:12:31;100151.47;;;24.33;46.32
58757;BME280;44527;47.460;19.016;2023-06-14T08:15:34;100151.47;;;25.02;45.18
58757;BME280;44527;47.460;19.016;2023-06-14T08:18:39;100140.56;;;24.34;45.28
58757;BME280;44527;47.460;19.016;2023-06-14T08:21:42;100140.44;;;24.21;46.61
58757;BME280;44527;47.460;19.016;2023-06-14T08:24:46;100139.56;;;24.14;46.74
58757;BME280;44527;47.460;19.016;2023-06-14T08:27:48;100140.50;;;23.78;48.93
58757;BME280;44527;47.460;19.016;2023-06-14T08:30:52;100135.44;;;23.47;49.18
58757;BME280;44527;47.460;19.016;2023-06-14T08:33:55;100145.84;;;23.56;49.04
58757;BME280;44527;47.460;19.016;2023-06-14T08:36:58;100146.72;;;23.78;47.76
58757;BME280;44527;47.460;19.016;2023-06-14T08:40:00;100146.91;;;23.40;49.43
58757;BME280;44527;47.460;19.016;2023-06-14T08:43:06;100157.25;;;23.44;49.76
58757;BME280;44527;47.460;19.016;2023-06-14T08:46:09;100154.78;;;23.63;49.63
58757;BME280;44527;47.460;19.016;2023-06-14T08:49:16;100162.66;;;23.87;50.67
58757;BME280;44527;47.460;19.016;2023-06-14T08:52:20;100158.41;;;24.20;49.13
58757;BME280;44527;47.460;19.016;2023-06-14T08:55:26;100161.53;;;24.02;47.59
58757;BME280;44527;47.460;19.016;2023-06-14T08:58:32;100174.28;;;23.72;48.81
58757;BME280;44527;47.460;19.016;2023-06-14T09:01:37;100183.59;;;23.76;47.22
58757;BME280;44527;47.460;19.016;2023-06-14T09:04:41;100182.72;;;23.54;48.67
58757;BME280;44527;47.460;19.016;2023-06-14T09:07:49;100176.16;;;23.57;49.02
58757;BME280;44527;47.460;19.016;2023-06-14T09:10:53;100181.66;;;23.70;48.65
58757;BME280;44527;47.460;19.016;2023-06-14T09:13:56;100180.97;;;24.04;47.62
58757;BME280;44527;47.460;19.016;2023-06-14T09:16:58;100185.34;;;24.34;47.07
58757;BME280;44527;47.460;19.016;2023-06-14T09:20:07;100184.66;;;24.53;46.17
58757;BME280;44527;47.460;19.016;2023-06-14T09:23:13;100184.88;;;24.30;48.11
58757;BME280;44527;47.460;19.016;2023-06-14T09:26:18;100187.31;;;24.46;46.02
58757;BME280;44527;47.460;19.016;2023-06-14T09:29:24;100183.28;;;24.64;44.88
58757;BME280;44527;47.460;19.016;2023-06-14T09:32:27;100183.53;;;24.41;46.72
58757;BME280;44527;47.460;19.016;2023-06-14T09:35:33;100172.84;;;24.19;47.23
58757;BME280;44527;47.460;19.016;2023-06-14T09:38:36;100171.50;;;23.87;47.18
58757;BME280;44527;47.460;19.016;2023-06-14T09:41:40;100168.78;;;23.80;46.48
58757;BME280;44527;47.460;19.016;2023-06-14T09:44:47;100170.13;;;23.91;46.20
58757;BME280;44527;47.460;19.016;2023-06-14T09:47:50;100163.16;;;24.46;45.40
58757;BME280;44527;47.460;19.016;2023-06-14T09:51:13;100168.22;;;24.63;44.68
58757;BME280;44527;47.460;19.016;2023-06-14T09:54:22;100159.78;;;24.72;44.87
58757;BME280;44527;47.460;19.016;2023-06-14T09:57:27;100154.69;;;24.77;44.41
58757;BME280;44527;47.460;19.016;2023-06-14T10:00:34;100151.63;;;24.24;45.65
58757;BME280;44527;47.460;19.016;2023-06-14T10:03:38;100147.09;;;23.75;47.43
58757;BME280;44527;47.460;19.016;2023-06-14T10:07:01;100153.09;;;23.77;49.04
58757;BME280;44527;47.460;19.016;2023-06-14T10:10:06;100150.88;;;24.65;46.55
58757;BME280;44527;47.460;19.016;2023-06-14T10:13:09;100154.06;;;24.82;43.74
58757;BME280;44527;47.460;19.016;2023-06-14T10:16:20;100153.38;;;25.08;43.80
58757;BME280;44527;47.460;19.016;2023-06-14T10:19:29;100151.22;;;24.90;44.40
58757;BME280;44527;47.460;19.016;2023-06-14T10:22:44;100145.22;;;24.88;43.78
58757;BME280;44527;47.460;19.016;2023-06-14T10:25:50;100151.72;;;25.07;44.63
58757;BME280;44527;47.460;19.016;2023-06-14T10:29:09;100149.09;;;25.20;42.34
58757;BME280;44527;47.460;19.016;2023-06-14T10:32:13;100138.94;;;24.68;41.18
58757;BME280;44527;47.460;19.016;2023-06-14T10:35:16;100137.75;;;24.77;40.46
58757;BME280;44527;47.460;19.016;2023-06-14T10:38:30;100137.09;;;24.68;39.26
58757;BME280;44527;47.460;19.016;2023-06-14T10:41:38;100133.88;;;24.51;39.37
58757;BME280;44527;47.460;19.016;2023-06-14T10:44:52;100134.56;;;24.67;39.64
58757;BME280;44527;47.460;19.016;2023-06-14T10:47:57;100138.09;;;25.09;38.06
58757;BME280;44527;47.460;19.016;2023-06-14T10:51:00;100137.69;;;25.12;38.20
58757;BME280;44527;47.460;19.016;2023-06-14T10:54:11;100131.13;;;25.14;37.70
58757;BME280;44527;47.460;19.016;2023-06-14T10:57:14;100131.78;;;25.30;36.62
58757;BME280;44527;47.460;19.016;2023-06-14T11:00:19;100130.06;;;25.15;37.88
58757;BME280;44527;47.460;19.016;2023-06-14T11:03:51;100128.87;;;25.31;36.57
58757;BME280;44527;47.460;19.016;2023-06-14T11:07:08;100120.66;;;24.91;36.87
58757;BME280;44527;47.460;19.016;2023-06-14T11:13:43;100117.56;;;25.49;35.38
58757;BME280;44527;47.460;19.016;2023-06-14T11:16:50;100113.62;;;25.52;37.40
58757;BME280;44527;47.460;19.016;2023-06-14T11:20:13;100107.78;;;25.21;35.44
58757;BME280;44527;47.460;19.016;2023-06-14T11:23:22;100119.81;;;25.39;36.22
58757;BME280;44527;47.460;19.016;2023-06-14T11:26:30;100116.88;;;25.14;34.28
58757;BME280;44527;47.460;19.016;2023-06-14T11:29:33;100106.97;;;25.34;34.63
58757;BME280;44527;47.460;19.016;2023-06-14T11:32:39;100111.34;;;25.29;36.83
58757;BME280;44527;47.460;19.016;2023-06-14T11:35:43;100110.47;;;25.28;36.31
58757;BME280;44527;47.460;19.016;2023-06-14T11:38:48;100109.50;;;25.56;35.24
58757;BME280;44527;47.460;19.016;2023-06-14T11:41:50;100108.31;;;25.92;35.44
58757;BME280;44527;47.460;19.016;2023-06-14T11:44:54;100106.59;;;25.44;35.25
58757;BME280;44527;47.460;19.016;2023-06-14T11:48:10;100101.19;;;25.31;35.92
58757;BME280;44527;47.460;19.016;2023-06-14T11:51:12;100096.56;;;25.05;34.33
58757;BME280;44527;47.460;19.016;2023-06-14T11:54:15;100102.00;;;25.25;34.79
58757;BME280;44527;47.460;19.016;2023-06-14T11:57:18;100106.22;;;25.54;35.55
58757;BME280;44527;47.460;19.016;2023-06-14T12:00:25;100098.97;;;25.74;35.09
58757;BME280;44527;47.460;19.016;2023-06-14T12:03:28;100105.81;;;25.70;35.90
58757;BME280;44527;47.460;19.016;2023-06-14T12:06:31;100110.53;;;25.35;34.64
58757;BME280;44527;47.460;19.016;2023-06-14T12:09:38;100110.38;;;24.95;35.25
58757;BME280;44527;47.460;19.016;2023-06-14T12:12:41;100103.62;;;25.19;37.35
58757;BME280;44527;47.460;19.016;2023-06-14T12:15:44;100101.41;;;25.29;34.57
58757;BME280;44527;47.460;19.016;2023-06-14T12:18:47;100107.09;;;25.06;36.52
58757;BME280;44527;47.460;19.016;2023-06-14T12:21:50;100109.81;;;25.13;34.81
58757;BME280;44527;47.460;19.016;2023-06-14T12:24:53;100106.72;;;25.16;33.04
58757;BME280;44527;47.460;19.016;2023-06-14T12:27:55;100110.69;;;25.27;36.52
58757;BME280;44527;47.460;19.016;2023-06-14T12:30:58;100098.91;;;25.34;32.81
58757;BME280;44527;47.460;19.016;2023-06-14T12:34:01;100100.84;;;25.60;34.43
58757;BME280;44527;47.460;19.016;2023-06-14T12:37:03;100109.34;;;25.97;33.46
58757;BME280;44527;47.460;19.016;2023-06-14T12:40:13;100110.97;;;26.51;33.03
58757;BME280;44527;47.460;19.016;2023-06-14T12:43:16;100115.06;;;26.47;32.77
58757;BME280;44527;47.460;19.016;2023-06-14T12:46:21;100109.28;;;26.64;34.62
58757;BME280;44527;47.460;19.016;2023-06-14T12:49:24;100125.66;;;26.42;35.05
58757;BME280;44527;47.460;19.016;2023-06-14T12:52:27;100117.38;;;26.57;33.49
58757;BME280;44527;47.460;19.016;2023-06-14T12:55:29;100118.66;;;26.21;34.11
58757;BME280;44527;47.460;19.016;2023-06-14T12:58:32;100117.59;;;26.29;33.09
58757;BME280;44527;47.460;19.016;2023-06-14T13:01:34;100106.84;;;25.96;34.76
58757;BME280;44527;47.460;19.016;2023-06-14T13:04:37;100104.16;;;25.69;35.39
58757;BME280;44527;47.460;19.016;2023-06-14T13:07:39;100097.75;;;25.57;37.70
58757;BME280;44527;47.460;19.016;2023-06-14T13:10:42;100096.28;;;25.48;38.55
58757;BME280;44527;47.460;19.016;2023-06-14T13:13:44;100091.72;;;25.55;38.62
58757;BME280;44527;47.460;19.016;2023-06-14T13:16:47;100088.81;;;25.43;39.06
58757;BME280;44527;47.460;19.016;2023-06-14T13:19:50;100103.09;;;25.57;39.48
58757;BME280;44527;47.460;19.016;2023-06-14T13:22:52;100104.09;;;25.36;38.46
58757;BME280;44527;47.460;19.016;2023-06-14T13:25:55;100108.81;;;25.14;40.20
58757;BME280;44527;47.460;19.016;2023-06-14T13:28:57;100105.66;;;25.10;39.16
58757;BME280;44527;47.460;19.016;2023-06-14T13:31:59;100108.03;;;25.33;38.56
58757;BME280;44527;47.460;19.016;2023-06-14T13:35:03;100099.59;;;25.63;38.45
58757;BME280;44527;47.460;19.016;2023-06-14T13:38:06;100106.22;;;25.80;38.84
58757;BME280;44527;47.460;19.016;2023-06-14T13:41:08;100098.78;;;25.62;38.24
58757;BME280;44527;47.460;19.016;2023-06-14T13:44:11;100098.16;;;25.60;38.67
58757;BME280;44527;47.460;19.016;2023-06-14T13:47:18;100089.03;;;25.61;38.70
58757;BME280;44527;47.460;19.016;2023-06-14T13:50:20;100091.94;;;25.66;39.42
58757;BME280;44527;47.460;19.016;2023-06-14T13:53:23;100083.47;;;25.76;37.68
58757;BME280;44527;47.460;19.016;2023-06-14T13:56:25;100094.84;;;25.72;37.82
58757;BME280;44527;47.460;19.016;2023-06-14T13:59:28;100089.91;;;25.82;37.58
58757;BME280;44527;47.460;19.016;2023-06-14T14:02:30;100093.81;;;25.93;38.92
58757;BME280;44527;47.460;19.016;2023-06-14T14:05:33;100090.91;;;25.74;38.00
58757;BME280;44527;47.460;19.016;2023-06-14T14:08:35;100089.84;;;25.29;38.54
58757;BME280;44527;47.460;19.016;2023-06-14T14:11:38;100090.44;;;25.31;39.46
58757;BME280;44527;47.460;19.016;2023-06-14T14:14:41;100082.78;;;25.28;38.87
58757;BME280;44527;47.460;19.016;2023-06-14T14:17:44;100087.47;;;25.12;40.22
58757;BME280;44527;47.460;19.016;2023-06-14T14:20:48;100086.00;;;24.96;38.99
58757;BME280;44527;47.460;19.016;2023-06-14T14:23:50;100087.19;;;24.81;40.35
58757;BME280;44527;47.460;19.016;2023-06-14T14:26:53;100085.72;;;24.78;40.29
58757;BME280;44527;47.460;19.016;2023-06-14T14:29:56;100087.44;;;24.51;40.81
58757;BME280;44527;47.460;19.016;2023-06-14T14:32:58;100085.84;;;24.28;39.71
58757;BME280;44527;47.460;19.016;2023-06-14T14:36:01;100100.00;;;24.44;39.41
58757;BME280;44527;47.460;19.016;2023-06-14T14:39:06;100090.19;;;24.29;41.28
58757;BME280;44527;47.460;19.016;2023-06-14T14:42:09;100081.22;;;24.44;40.44
58757;BME280;44527;47.460;19.016;2023-06-14T14:45:13;100084.94;;;24.43;40.64
58757;BME280;44527;47.460;19.016;2023-06-14T14:48:16;100086.31;;;24.39;41.71
58757;BME280;44527;47.460;19.016;2023-06-14T14:51:18;100085.25;;;24.61;40.70
58757;BME280;44527;47.460;19.016;2023-06-14T14:54:21;100082.44;;;24.83;39.92
58757;BME280;44527;47.460;19.016;2023-06-14T14:57:23;100093.94;;;24.70;40.07
58757;BME280;44527;47.460;19.016;2023-06-14T15:00:31;100091.44;;;24.62;39.69
58757;BME280;44527;47.460;19.016;2023-06-14T15:03:42;100088.50;;;24.57;39.97
58757;BME280;44527;47.460;19.016;2023-06-14T15:06:51;100083.44;;;24.40;40.68
58757;BME280;44527;47.460;19.016;2023-06-14T15:09:54;100085.56;;;24.45;41.67
58757;BME280;44527;47.460;19.016;2023-06-14T15:12:57;100081.16;;;24.37;40.81
58757;BME280;44527;47.460;19.016;2023-06-14T15:16:00;100085.09;;;24.06;40.80
58757;BME280;44527;47.460;19.016;2023-06-14T15:19:02;100074.13;;;24.01;40.54
58757;BME280;44527;47.460;19.016;2023-06-14T15:22:05;100073.69;;;23.98;42.18
58757;BME280;44527;47.460;19.016;2023-06-14T15:25:08;100073.78;;;23.83;43.05
58757;BME280;44527;47.460;19.016;2023-06-14T15:28:11;100069.12;;;23.70;42.74
58757;BME280;44527;47.460;19.016;2023-06-14T15:31:14;100072.13;;;23.60;42.61
58757;BME280;44527;47.460;19.016;2023-06-14T15:34:16;100070.66;;;23.58;42.51
58757;BME280;44527;47.460;19.016;2023-06-14T15:37:19;100071.09;;;23.61;43.41
58757;BME280;44527;47.460;19.016;2023-06-14T15:40:21;100069.88;;;23.64;42.88
58757;BME280;44527;47.460;19.016;2023-06-14T15:43:24;100062.94;;;23.48;41.87
58757;BME280;44527;47.460;19.016;2023-06-14T15:46:26;100059.56;;;23.39;42.29
58757;BME280;44527;47.460;19.016;2023-06-14T15:49:29;100061.03;;;23.42;42.67
58757;BME280;44527;47.460;19.016;2023-06-14T15:52:31;100062.75;;;23.28;42.38
58757;BME280;44527;47.460;19.016;2023-06-14T15:55:34;100067.91;;;23.30;42.36
58757;BME280;44527;47.460;19.016;2023-06-14T15:58:36;100065.62;;;23.27;41.56